Estación Meteorológica Peña el Pijo (Robertgarden) [ 01/30/23 14:08:29 CET ]

Fecha Hora Presion(HPa) Temp (°C) Humedad % Rocio (°C) Viento ( m/s) Direccion Lluvia 1Hora(mm) Lluvia 24H(mm) LLuvia Total(mm)
2010-Nov-17 01:01:12 1008.300 2.9 62 -3.7         2.07
2010-Nov-17 02:05:10 1007.500 7.2 35 -7.4         2.07
2010-Nov-17 03:01:17 1007.000 7.6 28 -9.9         2.07
2010-Nov-17 04:01:14 1006.700 8.8 22 -11.9         2.07
2010-Nov-17 05:01:13 1005.900 9.3 21 -12.0         2.07
2010-Nov-17 06:01:17 1005.300 9.2 22 -11.6         2.07
2010-Nov-17 07:01:14 1005.000 10.1 18 -13.5         2.07
2010-Nov-17 08:01:11 1005.600 10.2 16 -15.1 2.0 S     2.07
2010-Nov-17 09:01:12 1005.900 9.9 19 -12.8 2.5 S     2.07
2010-Nov-17 10:01:14 1005.900 8.9 28 -8.7         2.07
2010-Nov-17 11:01:15 1006.000 8.1 46 -2.9         2.07
2010-Nov-17 12:01:20 1005.200 8.5 56 0.2         2.07
2010-Nov-17 13:01:13 1004.000 10.1 61 2.9         2.07
2010-Nov-17 14:01:15 1003.400 10.8 66 4.7         2.07
2010-Nov-17 15:01:15 1003.100 10.9 70 5.7         2.07
2010-Nov-17 16:01:14 1003.100 10.7 70 5.5 1.2 SW     2.07
2010-Nov-17 17:01:13 1002.900 9.9 72 5.1         2.07
2010-Nov-17 18:01:13 1003.400 9.4 72 4.6         2.07
2010-Nov-17 19:01:16 1003.900 9.0 70 3.8         2.07
2010-Nov-17 20:01:13 1004.300 8.9 67 3.1         2.07
2010-Nov-17 21:01:14 1004.400 8.5 67 2.7         2.07
2010-Nov-17 22:01:17 1005.300 8.1 68 2.5         2.07
2010-Nov-17 23:01:13 1005.600 7.4 67 1.6         2.07

Temperatura Máxima:10°    Temperatura Mínima:
Presión Máxima:1008.300 Hpa    Presión Mínima:1002.900 Hpa


Volver